sensor_id;sensor_type;location;lat;lon;timestamp;pressure;altitude;pressure_sealevel;temperature;humidity
38786;BME280;24535;45.508;12.252;2022-12-07T00:01:38;101411.94;;;10.92;64.77
38786;BME280;24535;45.508;12.252;2022-12-07T00:04:05;101409.47;;;10.89;65.19
38786;BME280;24535;45.508;12.252;2022-12-07T00:06:37;101412.09;;;10.89;64.85
38786;BME280;24535;45.508;12.252;2022-12-07T00:09:04;101410.50;;;10.86;64.85
38786;BME280;24535;45.508;12.252;2022-12-07T00:11:31;101407.34;;;10.80;64.73
38786;BME280;24535;45.508;12.252;2022-12-07T00:13:59;101404.31;;;10.72;64.90
38786;BME280;24535;45.508;12.252;2022-12-07T00:16:28;101405.25;;;10.71;64.56
38786;BME280;24535;45.508;12.252;2022-12-07T00:18:54;101401.34;;;10.62;64.83
38786;BME280;24535;45.508;12.252;2022-12-07T00:21:22;101404.91;;;10.61;65.13
38786;BME280;24535;45.508;12.252;2022-12-07T00:23:49;101408.47;;;10.60;65.24
38786;BME280;24535;45.508;12.252;2022-12-07T00:26:17;101397.47;;;10.53;65.07
38786;BME280;24535;45.508;12.252;2022-12-07T00:28:48;101392.34;;;10.50;65.19
38786;BME280;24535;45.508;12.252;2022-12-07T00:31:15;101394.31;;;10.47;65.67
38786;BME280;24535;45.508;12.252;2022-12-07T00:33:41;101394.41;;;10.45;65.77
38786;BME280;24535;45.508;12.252;2022-12-07T00:36:09;101390.81;;;10.46;66.44
38786;BME280;24535;45.508;12.252;2022-12-07T00:38:37;101399.16;;;10.54;66.40
38786;BME280;24535;45.508;12.252;2022-12-07T00:41:05;101384.19;;;10.55;66.15
38786;BME280;24535;45.508;12.252;2022-12-07T00:43:31;101384.88;;;10.58;65.41
38786;BME280;24535;45.508;12.252;2022-12-07T00:45:57;101390.22;;;10.57;65.54
38786;BME280;24535;45.508;12.252;2022-12-07T00:48:23;101379.25;;;10.49;64.73
38786;BME280;24535;45.508;12.252;2022-12-07T00:50:49;101395.41;;;10.43;64.15
38786;BME280;24535;45.508;12.252;2022-12-07T00:53:15;101382.66;;;10.35;64.63
38786;BME280;24535;45.508;12.252;2022-12-07T00:55:40;101388.19;;;10.30;65.33
38786;BME280;24535;45.508;12.252;2022-12-07T00:58:06;101388.34;;;10.27;65.38
38786;BME280;24535;45.508;12.252;2022-12-07T01:00:32;101383.94;;;10.28;66.53
38786;BME280;24535;45.508;12.252;2022-12-07T01:02:58;101376.13;;;10.26;65.59
38786;BME280;24535;45.508;12.252;2022-12-07T01:05:24;101380.28;;;10.30;66.17
38786;BME280;24535;45.508;12.252;2022-12-07T01:07:49;101374.09;;;10.31;66.14
38786;BME280;24535;45.508;12.252;2022-12-07T01:10:15;101370.34;;;10.35;66.48
38786;BME280;24535;45.508;12.252;2022-12-07T01:12:40;101376.03;;;10.44;67.02
38786;BME280;24535;45.508;12.252;2022-12-07T01:15:07;101369.50;;;10.51;66.42
38786;BME280;24535;45.508;12.252;2022-12-07T01:17:33;101366.50;;;10.57;66.92
38786;BME280;24535;45.508;12.252;2022-12-07T01:19:59;101354.78;;;10.62;66.50
38786;BME280;24535;45.508;12.252;2022-12-07T01:22:24;101355.53;;;10.64;66.21
38786;BME280;24535;45.508;12.252;2022-12-07T01:24:50;101355.19;;;10.71;66.48
38786;BME280;24535;45.508;12.252;2022-12-07T01:27:15;101358.66;;;10.71;66.08
38786;BME280;24535;45.508;12.252;2022-12-07T01:29:41;101360.28;;;10.74;66.36
38786;BME280;24535;45.508;12.252;2022-12-07T01:32:07;101353.91;;;10.78;65.89
38786;BME280;24535;45.508;12.252;2022-12-07T01:34:32;101360.88;;;10.79;65.98
38786;BME280;24535;45.508;12.252;2022-12-07T01:36:58;101359.34;;;10.75;65.28
38786;BME280;24535;45.508;12.252;2022-12-07T01:39:23;101363.94;;;10.71;65.42
38786;BME280;24535;45.508;12.252;2022-12-07T01:41:49;101358.94;;;10.67;65.19
38786;BME280;24535;45.508;12.252;2022-12-07T01:44:25;101355.47;;;10.66;65.87
38786;BME280;24535;45.508;12.252;2022-12-07T01:46:52;101352.22;;;10.61;64.61
38786;BME280;24535;45.508;12.252;2022-12-07T01:49:42;101354.28;;;10.56;65.12
38786;BME280;24535;45.508;12.252;2022-12-07T01:52:19;101356.44;;;10.49;65.22
38786;BME280;24535;45.508;12.252;2022-12-07T01:54:50;101349.84;;;10.40;65.70
38786;BME280;24535;45.508;12.252;2022-12-07T01:57:16;101347.31;;;10.39;65.63
38786;BME280;24535;45.508;12.252;2022-12-07T01:59:43;101351.91;;;10.35;64.82
38786;BME280;24535;45.508;12.252;2022-12-07T02:02:17;101350.47;;;10.30;65.24
38786;BME280;24535;45.508;12.252;2022-12-07T02:04:44;101340.88;;;10.29;65.37
38786;BME280;24535;45.508;12.252;2022-12-07T02:07:09;101336.53;;;10.28;65.43
38786;BME280;24535;45.508;12.252;2022-12-07T02:09:35;101343.44;;;10.30;65.53
38786;BME280;24535;45.508;12.252;2022-12-07T02:12:01;101339.94;;;10.30;65.70
38786;BME280;24535;45.508;12.252;2022-12-07T02:14:27;101347.06;;;10.28;65.52
38786;BME280;24535;45.508;12.252;2022-12-07T02:17:14;101345.38;;;10.27;64.99
38786;BME280;24535;45.508;12.252;2022-12-07T02:20:12;101354.22;;;10.26;65.25
38786;BME280;24535;45.508;12.252;2022-12-07T02:22:55;101349.09;;;10.23;65.74
38786;BME280;24535;45.508;12.252;2022-12-07T02:31:33;101354.03;;;10.13;65.47
38786;BME280;24535;45.508;12.252;2022-12-07T02:34:08;101352.25;;;10.13;65.89
38786;BME280;24535;45.508;12.252;2022-12-07T02:36:52;101359.19;;;10.14;65.84
38786;BME280;24535;45.508;12.252;2022-12-07T02:39:47;101354.03;;;10.13;64.92
38786;BME280;24535;45.508;12.252;2022-12-07T02:42:23;101353.09;;;10.14;65.34
38786;BME280;24535;45.508;12.252;2022-12-07T02:44:50;101349.50;;;10.15;65.23
38786;BME280;24535;45.508;12.252;2022-12-07T02:47:18;101349.50;;;10.15;65.16
38786;BME280;24535;45.508;12.252;2022-12-07T02:49:46;101342.81;;;10.09;63.94
38786;BME280;24535;45.508;12.252;2022-12-07T02:52:12;101333.81;;;9.98;64.21
38786;BME280;24535;45.508;12.252;2022-12-07T02:54:37;101328.09;;;9.89;65.43
38786;BME280;24535;45.508;12.252;2022-12-07T03:06:27;101324.94;;;9.83;64.13
38786;BME280;24535;45.508;12.252;2022-12-07T03:11:15;101314.66;;;9.62;64.02
38786;BME280;24535;45.508;12.252;2022-12-07T03:16:33;101312.94;;;9.46;64.63
38786;BME280;24535;45.508;12.252;2022-12-07T03:19:05;101315.00;;;9.39;64.26
38786;BME280;24535;45.508;12.252;2022-12-07T03:24:52;101304.41;;;9.25;64.62
38786;BME280;24535;45.508;12.252;2022-12-07T03:27:23;101301.16;;;9.20;64.52
38786;BME280;24535;45.508;12.252;2022-12-07T03:32:41;101296.81;;;9.19;65.43
38786;BME280;24535;45.508;12.252;2022-12-07T03:37:56;101288.63;;;9.25;65.91
38786;BME280;24535;45.508;12.252;2022-12-07T03:40:30;101294.81;;;9.24;65.49
38786;BME280;24535;45.508;12.252;2022-12-07T03:42:58;101299.28;;;9.22;65.60
38786;BME280;24535;45.508;12.252;2022-12-07T03:45:36;101297.59;;;9.21;65.61
38786;BME280;24535;45.508;12.252;2022-12-07T03:50:32;101298.34;;;9.23;65.19
38786;BME280;24535;45.508;12.252;2022-12-07T03:53:11;101287.84;;;9.23;65.62
38786;BME280;24535;45.508;12.252;2022-12-07T03:55:41;101287.78;;;9.24;65.28
38786;BME280;24535;45.508;12.252;2022-12-07T03:58:11;101288.53;;;9.26;64.97
38786;BME280;24535;45.508;12.252;2022-12-07T04:00:37;101287.00;;;9.22;63.44
38786;BME280;24535;45.508;12.252;2022-12-07T04:03:03;101282.91;;;9.16;65.33
38786;BME280;24535;45.508;12.252;2022-12-07T04:05:28;101285.38;;;9.20;64.57
38786;BME280;24535;45.508;12.252;2022-12-07T04:07:54;101289.88;;;9.18;64.17
38786;BME280;24535;45.508;12.252;2022-12-07T04:10:20;101282.13;;;9.14;64.31
38786;BME280;24535;45.508;12.252;2022-12-07T04:12:45;101285.38;;;9.20;65.10
38786;BME280;24535;45.508;12.252;2022-12-07T04:15:11;101286.00;;;9.25;64.86
38786;BME280;24535;45.508;12.252;2022-12-07T04:17:36;101279.94;;;9.23;64.57
38786;BME280;24535;45.508;12.252;2022-12-07T04:20:02;101282.41;;;9.26;64.46
38786;BME280;24535;45.508;12.252;2022-12-07T04:22:29;101285.66;;;9.31;64.63
38786;BME280;24535;45.508;12.252;2022-12-07T04:24:54;101280.09;;;9.37;64.23
38786;BME280;24535;45.508;12.252;2022-12-07T04:27:20;101280.16;;;9.35;63.71
38786;BME280;24535;45.508;12.252;2022-12-07T04:29:45;101266.56;;;9.27;63.29
38786;BME280;24535;45.508;12.252;2022-12-07T04:32:11;101267.66;;;9.23;63.77
38786;BME280;24535;45.508;12.252;2022-12-07T04:34:36;101263.56;;;9.18;62.91
38786;BME280;24535;45.508;12.252;2022-12-07T04:37:01;101266.31;;;9.16;63.30
38786;BME280;24535;45.508;12.252;2022-12-07T04:39:31;101273.50;;;9.12;63.32
38786;BME280;24535;45.508;12.252;2022-12-07T04:42:03;101277.03;;;9.11;63.94
38786;BME280;24535;45.508;12.252;2022-12-07T04:44:29;101275.47;;;9.07;63.02
38786;BME280;24535;45.508;12.252;2022-12-07T04:46:55;101274.81;;;9.04;63.16
38786;BME280;24535;45.508;12.252;2022-12-07T04:49:22;101268.03;;;9.00;63.72
38786;BME280;24535;45.508;12.252;2022-12-07T04:51:49;101275.03;;;8.99;63.47
38786;BME280;24535;45.508;12.252;2022-12-07T04:54:16;101269.31;;;8.91;63.43
38786;BME280;24535;45.508;12.252;2022-12-07T04:56:42;101281.22;;;8.98;64.17
38786;BME280;24535;45.508;12.252;2022-12-07T04:59:09;101288.03;;;9.02;64.04
38786;BME280;24535;45.508;12.252;2022-12-07T05:01:35;101276.56;;;9.03;63.67
38786;BME280;24535;45.508;12.252;2022-12-07T05:04:01;101282.31;;;8.94;62.85
38786;BME280;24535;45.508;12.252;2022-12-07T05:06:26;101280.47;;;8.96;64.08
38786;BME280;24535;45.508;12.252;2022-12-07T05:08:52;101274.03;;;9.02;63.87
38786;BME280;24535;45.508;12.252;2022-12-07T05:11:17;101261.75;;;9.02;63.10
38786;BME280;24535;45.508;12.252;2022-12-07T05:14:03;101262.22;;;8.93;63.17
38786;BME280;24535;45.508;12.252;2022-12-07T05:16:29;101262.78;;;8.82;62.52
38786;BME280;24535;45.508;12.252;2022-12-07T05:18:54;101256.31;;;8.72;62.42
38786;BME280;24535;45.508;12.252;2022-12-07T05:21:20;101261.16;;;8.62;62.06
38786;BME280;24535;45.508;12.252;2022-12-07T05:23:46;101255.53;;;8.53;62.66
38786;BME280;24535;45.508;12.252;2022-12-07T05:26:11;101263.69;;;8.47;62.44
38786;BME280;24535;45.508;12.252;2022-12-07T05:28:37;101269.34;;;8.39;62.22
38786;BME280;24535;45.508;12.252;2022-12-07T05:31:02;101278.69;;;8.26;62.89
38786;BME280;24535;45.508;12.252;2022-12-07T05:33:28;101275.81;;;8.13;62.79
38786;BME280;24535;45.508;12.252;2022-12-07T05:35:53;101270.16;;;8.03;62.89
38786;BME280;24535;45.508;12.252;2022-12-07T05:38:19;101275.91;;;7.92;63.39
38786;BME280;24535;45.508;12.252;2022-12-07T05:40:54;101279.69;;;7.87;64.08
38786;BME280;24535;45.508;12.252;2022-12-07T05:43:19;101278.25;;;7.80;63.90
38786;BME280;24535;45.508;12.252;2022-12-07T05:45:44;101288.38;;;7.68;63.48
38786;BME280;24535;45.508;12.252;2022-12-07T05:48:20;101291.34;;;7.61;63.78
38786;BME280;24535;45.508;12.252;2022-12-07T05:50:50;101290.72;;;7.56;63.95
38786;BME280;24535;45.508;12.252;2022-12-07T05:53:18;101277.97;;;7.48;64.14
38786;BME280;24535;45.508;12.252;2022-12-07T05:55:46;101279.66;;;7.49;64.62
38786;BME280;24535;45.508;12.252;2022-12-07T05:58:11;101276.06;;;7.52;64.79
38786;BME280;24535;45.508;12.252;2022-12-07T06:00:56;101277.97;;;7.48;64.73
38786;BME280;24535;45.508;12.252;2022-12-07T06:09:57;101274.97;;;7.37;63.84
38786;BME280;24535;45.508;12.252;2022-12-07T06:12:43;101283.25;;;7.28;64.07
38786;BME280;24535;45.508;12.252;2022-12-07T06:15:11;101276.38;;;7.25;64.79
38786;BME280;24535;45.508;12.252;2022-12-07T06:17:38;101272.13;;;7.23;64.77
38786;BME280;24535;45.508;12.252;2022-12-07T06:20:04;101273.56;;;7.30;65.81
38786;BME280;24535;45.508;12.252;2022-12-07T06:22:30;101274.19;;;7.35;65.38
38786;BME280;24535;45.508;12.252;2022-12-07T06:24:56;101284.06;;;7.49;65.47
38786;BME280;24535;45.508;12.252;2022-12-07T06:29:57;101290.72;;;7.56;64.25
38786;BME280;24535;45.508;12.252;2022-12-07T06:32:40;101280.78;;;7.43;64.03
38786;BME280;24535;45.508;12.252;2022-12-07T06:35:06;101281.22;;;7.34;63.84
38786;BME280;24535;45.508;12.252;2022-12-07T06:37:31;101287.72;;;7.26;63.51
38786;BME280;24535;45.508;12.252;2022-12-07T06:39:57;101289.75;;;7.19;64.15
38786;BME280;24535;45.508;12.252;2022-12-07T06:42:22;101290.00;;;7.13;64.24
38786;BME280;24535;45.508;12.252;2022-12-07T06:44:47;101291.00;;;7.10;64.26
38786;BME280;24535;45.508;12.252;2022-12-07T06:47:13;101291.97;;;7.08;64.63
38786;BME280;24535;45.508;12.252;2022-12-07T06:53:03;101294.03;;;7.01;64.91
38786;BME280;24535;45.508;12.252;2022-12-07T06:55:37;101301.72;;;7.04;65.00
38786;BME280;24535;45.508;12.252;2022-12-07T06:58:03;101301.53;;;7.09;65.42
38786;BME280;24535;45.508;12.252;2022-12-07T07:00:29;101300.75;;;7.07;65.36
38786;BME280;24535;45.508;12.252;2022-12-07T07:02:54;101300.69;;;7.08;64.81
38786;BME280;24535;45.508;12.252;2022-12-07T07:05:20;101291.84;;;7.11;65.54
38786;BME280;24535;45.508;12.252;2022-12-07T07:07:48;101290.81;;;7.15;65.30
38786;BME280;24535;45.508;12.252;2022-12-07T07:10:14;101288.06;;;7.18;65.76
38786;BME280;24535;45.508;12.252;2022-12-07T07:12:39;101290.69;;;7.18;65.18
38786;BME280;24535;45.508;12.252;2022-12-07T07:15:11;101288.56;;;7.26;66.11
38786;BME280;24535;45.508;12.252;2022-12-07T07:18:12;101283.13;;;7.31;65.55
38786;BME280;24535;45.508;12.252;2022-12-07T07:20:38;101289.00;;;7.36;65.24
38786;BME280;24535;45.508;12.252;2022-12-07T07:23:04;101288.06;;;7.37;64.50
38786;BME280;24535;45.508;12.252;2022-12-07T07:25:29;101294.81;;;7.42;65.20
38786;BME280;24535;45.508;12.252;2022-12-07T07:27:55;101299.84;;;7.47;65.72
38786;BME280;24535;45.508;12.252;2022-12-07T07:30:20;101303.75;;;7.57;65.47
38786;BME280;24535;45.508;12.252;2022-12-07T07:32:46;101306.97;;;7.64;65.14
38786;BME280;24535;45.508;12.252;2022-12-07T07:35:11;101305.97;;;7.66;64.93
38786;BME280;24535;45.508;12.252;2022-12-07T07:37:42;101304.41;;;7.62;64.54
38786;BME280;24535;45.508;12.252;2022-12-07T07:40:09;101310.38;;;7.66;64.71
38786;BME280;24535;45.508;12.252;2022-12-07T07:42:34;101301.63;;;7.65;64.97
38786;BME280;24535;45.508;12.252;2022-12-07T07:45:00;101307.03;;;7.62;64.90
38786;BME280;24535;45.508;12.252;2022-12-07T07:47:25;101307.94;;;7.61;64.65
38786;BME280;24535;45.508;12.252;2022-12-07T07:49:51;101302.84;;;7.58;65.25
38786;BME280;24535;45.508;12.252;2022-12-07T07:52:16;101311.28;;;7.65;64.98
38786;BME280;24535;45.508;12.252;2022-12-07T07:54:42;101301.63;;;7.65;65.40
38786;BME280;24535;45.508;12.252;2022-12-07T07:57:07;101305.81;;;7.69;65.39
38786;BME280;24535;45.508;12.252;2022-12-07T07:59:33;101308.31;;;7.73;65.08
38786;BME280;24535;45.508;12.252;2022-12-07T08:01:58;101305.81;;;7.69;65.65
38786;BME280;24535;45.508;12.252;2022-12-07T08:04:24;101299.66;;;7.71;65.12
38786;BME280;24535;45.508;12.252;2022-12-07T08:06:49;101311.00;;;7.71;65.46
38786;BME280;24535;45.508;12.252;2022-12-07T08:09:15;101313.56;;;7.73;65.86
38786;BME280;24535;45.508;12.252;2022-12-07T08:11:40;101314.84;;;7.83;66.44
38786;BME280;24535;45.508;12.252;2022-12-07T08:14:06;101315.13;;;7.96;66.71
38786;BME280;24535;45.508;12.252;2022-12-07T08:16:31;101323.34;;;8.07;66.17
38786;BME280;24535;45.508;12.252;2022-12-07T08:18:57;101330.69;;;8.17;65.42
38786;BME280;24535;45.508;12.252;2022-12-07T08:21:22;101331.41;;;8.21;65.61
38786;BME280;24535;45.508;12.252;2022-12-07T08:23:57;101341.69;;;8.26;65.00
38786;BME280;24535;45.508;12.252;2022-12-07T08:26:22;101330.28;;;8.27;64.93
38786;BME280;24535;45.508;12.252;2022-12-07T08:28:48;101335.31;;;8.31;65.43
38786;BME280;24535;45.508;12.252;2022-12-07T08:31:17;101328.41;;;8.29;65.13
38786;BME280;24535;45.508;12.252;2022-12-07T08:33:45;101335.06;;;8.36;65.37
38786;BME280;24535;45.508;12.252;2022-12-07T08:36:12;101337.28;;;8.45;66.23
38786;BME280;24535;45.508;12.252;2022-12-07T08:38:39;101339.25;;;8.59;66.03
38786;BME280;24535;45.508;12.252;2022-12-07T08:41:06;101344.66;;;8.73;65.77
38786;BME280;24535;45.508;12.252;2022-12-07T08:43:32;101340.66;;;8.83;65.68
38786;BME280;24535;45.508;12.252;2022-12-07T08:46:13;101339.97;;;8.97;66.06
38786;BME280;24535;45.508;12.252;2022-12-07T08:51:34;101330.91;;;9.20;64.96
38786;BME280;24535;45.508;12.252;2022-12-07T08:54:04;101333.16;;;9.28;65.35
38786;BME280;24535;45.508;12.252;2022-12-07T08:56:31;101329.25;;;9.35;65.15
38786;BME280;24535;45.508;12.252;2022-12-07T08:58:59;101338.97;;;9.50;65.94
38786;BME280;24535;45.508;12.252;2022-12-07T09:01:25;101338.00;;;9.69;65.66
38786;BME280;24535;45.508;12.252;2022-12-07T09:03:52;101353.47;;;9.90;65.31
38786;BME280;24535;45.508;12.252;2022-12-07T09:06:18;101351.81;;;10.05;64.97
38786;BME280;24535;45.508;12.252;2022-12-07T09:08:47;101349.19;;;10.21;64.61
38786;BME280;24535;45.508;12.252;2022-12-07T09:11:17;101349.97;;;10.39;64.44
38786;BME280;24535;45.508;12.252;2022-12-07T09:13:43;101345.53;;;10.55;64.36
38786;BME280;24535;45.508;12.252;2022-12-07T09:16:08;101350.75;;;10.71;63.45
38786;BME280;24535;45.508;12.252;2022-12-07T09:18:34;101338.50;;;10.86;63.16
38786;BME280;24535;45.508;12.252;2022-12-07T09:20:59;101347.44;;;10.98;62.20
38786;BME280;24535;45.508;12.252;2022-12-07T09:23:25;101354.84;;;11.07;61.96
38786;BME280;24535;45.508;12.252;2022-12-07T09:25:50;101345.63;;;11.14;62.38
38786;BME280;24535;45.508;12.252;2022-12-07T09:28:16;101351.69;;;11.30;62.68
38786;BME280;24535;45.508;12.252;2022-12-07T09:30:46;101360.44;;;11.45;62.37
38786;BME280;24535;45.508;12.252;2022-12-07T09:33:14;101351.97;;;11.54;62.09
38786;BME280;24535;45.508;12.252;2022-12-07T09:35:49;101347.00;;;11.64;61.06
38786;BME280;24535;45.508;12.252;2022-12-07T09:38:15;101345.66;;;11.71;61.64
38786;BME280;24535;45.508;12.252;2022-12-07T09:40:41;101348.88;;;11.76;61.19
38786;BME280;24535;45.508;12.252;2022-12-07T09:43:20;101340.56;;;11.82;60.71
38786;BME280;24535;45.508;12.252;2022-12-07T09:45:48;101347.28;;;11.88;60.72
38786;BME280;24535;45.508;12.252;2022-12-07T09:48:21;101334.63;;;11.93;60.67
38786;BME280;24535;45.508;12.252;2022-12-07T09:50:52;101328.34;;;11.96;60.28
38786;BME280;24535;45.508;12.252;2022-12-07T09:53:39;101331.34;;;12.04;59.92
38786;BME280;24535;45.508;12.252;2022-12-07T09:56:05;101324.91;;;12.08;61.13
38786;BME280;24535;45.508;12.252;2022-12-07T09:58:32;101321.88;;;12.14;60.64
38786;BME280;24535;45.508;12.252;2022-12-07T10:03:39;101313.16;;;12.26;60.14
38786;BME280;24535;45.508;12.252;2022-12-07T10:06:06;101311.28;;;12.28;60.16
38786;BME280;24535;45.508;12.252;2022-12-07T10:08:32;101312.47;;;12.37;60.07
38786;BME280;24535;45.508;12.252;2022-12-07T10:11:01;101303.38;;;12.41;60.26
38786;BME280;24535;45.508;12.252;2022-12-07T10:13:40;101304.38;;;12.53;59.93
38786;BME280;24535;45.508;12.252;2022-12-07T10:16:07;101308.00;;;12.65;60.24
38786;BME280;24535;45.508;12.252;2022-12-07T10:18:53;101293.53;;;12.70;59.36
38786;BME280;24535;45.508;12.252;2022-12-07T10:21:23;101301.78;;;12.78;59.40
38786;BME280;24535;45.508;12.252;2022-12-07T10:23:59;101298.63;;;12.86;58.78
38786;BME280;24535;45.508;12.252;2022-12-07T10:26:39;101293.56;;;12.96;59.08
38786;BME280;24535;45.508;12.252;2022-12-07T10:31:44;101292.84;;;13.06;58.26
38786;BME280;24535;45.508;12.252;2022-12-07T10:34:34;101287.44;;;13.08;57.68
38786;BME280;24535;45.508;12.252;2022-12-07T10:37:20;101277.72;;;13.08;57.11
38786;BME280;24535;45.508;12.252;2022-12-07T10:39:53;101278.97;;;13.16;58.50
38786;BME280;24535;45.508;12.252;2022-12-07T10:42:22;101279.63;;;13.19;57.76
38786;BME280;24535;45.508;12.252;2022-12-07T10:44:50;101273.28;;;13.22;57.63
38786;BME280;24535;45.508;12.252;2022-12-07T10:47:40;101266.28;;;13.21;57.41
38786;BME280;24535;45.508;12.252;2022-12-07T10:50:22;101277.22;;;13.29;57.41
38786;BME280;24535;45.508;12.252;2022-12-07T10:58:31;101265.56;;;13.31;56.60
38786;BME280;24535;45.508;12.252;2022-12-07T11:01:12;101261.88;;;13.34;57.29
38786;BME280;24535;45.508;12.252;2022-12-07T11:17:14;101249.28;;;13.38;56.32
38786;BME280;24535;45.508;12.252;2022-12-07T11:25:21;101240.66;;;13.47;55.88
38786;BME280;24535;45.508;12.252;2022-12-07T11:33:21;101222.69;;;13.39;55.21
38786;BME280;24535;45.508;12.252;2022-12-07T11:41:12;101218.75;;;13.45;56.28
38786;BME280;24535;45.508;12.252;2022-12-07T11:43:50;101220.13;;;13.50;56.16
38786;BME280;24535;45.508;12.252;2022-12-07T11:46:17;101219.78;;;13.55;56.23
38786;BME280;24535;45.508;12.252;2022-12-07T11:48:47;101218.75;;;13.57;55.71
38786;BME280;24535;45.508;12.252;2022-12-07T11:51:18;101210.56;;;13.60;55.70
38786;BME280;24535;45.508;12.252;2022-12-07T11:53:54;101207.91;;;13.60;54.71
38786;BME280;24535;45.508;12.252;2022-12-07T11:56:27;101209.63;;;13.62;55.41
38786;BME280;24535;45.508;12.252;2022-12-07T11:59:13;101205.88;;;13.64;54.66
38786;BME280;24535;45.508;12.252;2022-12-07T12:07:11;101199.75;;;13.64;54.11
38786;BME280;24535;45.508;12.252;2022-12-07T12:10:03;101199.75;;;13.64;52.95
38786;BME280;24535;45.508;12.252;2022-12-07T12:20:48;101190.84;;;13.65;54.00
38786;BME280;24535;45.508;12.252;2022-12-07T12:25:47;101183.88;;;13.64;54.66
38786;BME280;24535;45.508;12.252;2022-12-07T12:28:21;101176.78;;;13.64;54.11
38786;BME280;24535;45.508;12.252;2022-12-07T12:31:14;101174.97;;;13.65;54.61
38786;BME280;24535;45.508;12.252;2022-12-07T12:33:56;101181.34;;;13.62;54.10
38786;BME280;24535;45.508;12.252;2022-12-07T12:47:04;101169.72;;;13.52;53.85
38786;BME280;24535;45.508;12.252;2022-12-07T12:49:41;101160.09;;;13.51;53.84
38786;BME280;24535;45.508;12.252;2022-12-07T12:54:59;101160.22;;;13.49;53.98
38786;BME280;24535;45.508;12.252;2022-12-07T12:57:29;101155.75;;;13.50;53.93
38786;BME280;24535;45.508;12.252;2022-12-07T13:08:02;101150.81;;;13.45;54.83
38786;BME280;24535;45.508;12.252;2022-12-07T13:23:12;101157.28;;;13.41;54.68
38786;BME280;24535;45.508;12.252;2022-12-07T13:28:36;101150.06;;;13.43;55.33
38786;BME280;24535;45.508;12.252;2022-12-07T13:31:58;101156.19;;;13.44;54.42
38786;BME280;24535;45.508;12.252;2022-12-07T13:33:59;101147.53;;;13.42;54.88
38786;BME280;24535;45.508;12.252;2022-12-07T13:36:27;101147.75;;;13.39;54.53
38786;BME280;24535;45.508;12.252;2022-12-07T13:38:58;101145.94;;;13.39;54.63
38786;BME280;24535;45.508;12.252;2022-12-07T13:41:44;101149.56;;;13.38;54.72
38786;BME280;24535;45.508;12.252;2022-12-07T13:44:12;101145.81;;;13.41;54.50
38786;BME280;24535;45.508;12.252;2022-12-07T13:49:28;101132.94;;;13.36;54.32
38786;BME280;24535;45.508;12.252;2022-12-07T13:51:55;101139.81;;;13.39;54.48
38786;BME280;24535;45.508;12.252;2022-12-07T13:54:32;101143.16;;;13.41;55.22
38786;BME280;24535;45.508;12.252;2022-12-07T13:56:58;101137.03;;;13.40;55.71
38786;BME280;24535;45.508;12.252;2022-12-07T13:59:25;101138.75;;;13.41;55.30
38786;BME280;24535;45.508;12.252;2022-12-07T14:01:52;101140.31;;;13.44;55.70
38786;BME280;24535;45.508;12.252;2022-12-07T14:04:45;101146.22;;;13.47;55.74
38786;BME280;24535;45.508;12.252;2022-12-07T14:07:28;101146.00;;;13.50;56.14
38786;BME280;24535;45.508;12.252;2022-12-07T14:10:06;101149.28;;;13.54;55.41
38786;BME280;24535;45.508;12.252;2022-12-07T14:12:36;101145.19;;;13.50;55.78
38786;BME280;24535;45.508;12.252;2022-12-07T14:15:02;101131.81;;;13.51;55.62
38786;BME280;24535;45.508;12.252;2022-12-07T14:17:28;101143.16;;;13.53;55.59
38786;BME280;24535;45.508;12.252;2022-12-07T14:19:59;101145.69;;;13.55;56.16
38786;BME280;24535;45.508;12.252;2022-12-07T14:22:29;101152.44;;;13.59;55.42
38786;BME280;24535;45.508;12.252;2022-12-07T14:27:46;101142.91;;;13.56;55.33
38786;BME280;24535;45.508;12.252;2022-12-07T14:30:16;101145.56;;;13.56;55.67
38786;BME280;24535;45.508;12.252;2022-12-07T14:32:43;101145.81;;;13.53;55.06
38786;BME280;24535;45.508;12.252;2022-12-07T14:35:15;101150.84;;;13.56;54.93
38786;BME280;24535;45.508;12.252;2022-12-07T14:37:43;101145.81;;;13.53;55.34
38786;BME280;24535;45.508;12.252;2022-12-07T14:40:13;101146.84;;;13.51;54.93
38786;BME280;24535;45.508;12.252;2022-12-07T14:42:39;101147.56;;;13.53;55.26
38786;BME280;24535;45.508;12.252;2022-12-07T14:45:14;101153.00;;;13.51;55.14
38786;BME280;24535;45.508;12.252;2022-12-07T14:47:40;101149.72;;;13.48;54.72
38786;BME280;24535;45.508;12.252;2022-12-07T14:50:06;101152.50;;;13.46;54.88
38786;BME280;24535;45.508;12.252;2022-12-07T14:52:32;101155.13;;;13.46;54.60
38786;BME280;24535;45.508;12.252;2022-12-07T14:54:58;101155.13;;;13.46;54.67
38786;BME280;24535;45.508;12.252;2022-12-07T14:57:23;101158.00;;;13.43;55.20
38786;BME280;24535;45.508;12.252;2022-12-07T14:59:49;101162.56;;;13.41;55.13
38786;BME280;24535;45.508;12.252;2022-12-07T15:02:17;101151.44;;;13.36;56.33
38786;BME280;24535;45.508;12.252;2022-12-07T15:04:42;101146.63;;;13.30;56.00
38786;BME280;24535;45.508;12.252;2022-12-07T15:07:20;101158.25;;;13.27;56.67
38786;BME280;24535;45.508;12.252;2022-12-07T15:09:47;101154.44;;;13.19;56.15
38786;BME280;24535;45.508;12.252;2022-12-07T15:12:12;101158.47;;;13.11;57.11
38786;BME280;24535;45.508;12.252;2022-12-07T15:14:38;101159.84;;;13.04;57.21
38786;BME280;24535;45.508;12.252;2022-12-07T15:17:03;101160.28;;;12.98;56.93
38786;BME280;24535;45.508;12.252;2022-12-07T15:19:29;101160.94;;;12.89;57.26
38786;BME280;24535;45.508;12.252;2022-12-07T15:21:54;101174.47;;;12.84;57.87
38786;BME280;24535;45.508;12.252;2022-12-07T15:24:20;101172.44;;;12.75;57.82